Saturday, November 18, 2017, 10:03 PM EST
Back to Local

KDDH, Bennington Morse State Airport

Location: Bennington, VT, United States Lat: 42.883
Local Time: 10:03 PM EST ( 3:03 GMT) Lon: -73.25
Time Zone: US/Eastern Elev: 826 ft

Show me the last for .
Show Decoded

2017-11-18 20:54 METAR KDDH 190154Z AUTO VRB04KT 10SM OVC019 07/04 A2946 RMK AO2 RAE53 SLP982
                 P0000 T00670039 =
2017-11-18 19:54 METAR KDDH 190054Z AUTO 00000KT 10SM -RA SCT015 BKN024 OVC029 06/03 A2949 RMK
                 AO2 SLP994 P0009 T00610033 =
2017-11-18 18:54 METAR KDDH 182354Z AUTO 03009KT 9SM -RA OVC026 06/02 A2952 RMK AO2 RAE25B44
                 SLP005 P0000 60002 T00610022 10072 20056 58027 =
2017-11-18 17:54 METAR KDDH 182254Z AUTO 00000KT 5SM -RA OVC025 06/02 A2957 RMK AO2 RAB11 SLP022
                 P0002 T00610017 =
2017-11-18 17:44 METAR KDDH 182244Z AUTO 12008KT 9SM -RA BKN027 OVC032 07/01 A2958 RMK AO2 RAB11
                 P0000 T00670011 =
2017-11-18 16:54 METAR KDDH 182154Z AUTO 10SM OVC034 06/00 A2957 RMK AO2 RAB05E29 SLP022 P0000
                 T00610000 =
2017-11-18 15:54 METAR KDDH 182054Z AUTO 21005KT 10SM OVC040 07/M01 A2961 RMK AO2 SLP034
                 T00671011 56026 =
2017-11-18 14:54 METAR KDDH 181954Z AUTO 17007KT 10SM OVC048 07/M03 A2964 RMK AO2 SLP044
                 T00671028 =
2017-11-18 13:54 METAR KDDH 181854Z AUTO 21007KT 170V240 10SM BKN065 OVC080 07/M04 A2964 RMK AO2
                 SLP046 T00671044 =
2017-11-18 12:54 METAR KDDH 181754Z AUTO 00000KT 10SM FEW100 SCT120 07/M05 A2969 RMK AO2 SLP060
                 T00721050 10078 21067 56045 =
2017-11-18 11:54 METAR KDDH 181654Z AUTO VRB04KT 10SM SCT090 BKN110 07/M06 A2973 RMK AO2 SLP076
                 T00671056 =
2017-11-18 10:54 METAR KDDH 181554Z AUTO 00000KT 10SM FEW120 05/M04 A2977 RMK AO2 SLP088
                 T00501039 =
2017-11-18 09:54 METAR KDDH 181454Z AUTO 00000KT 10SM CLR 00/M06 A2982 RMK AO2 SLP109 T00001061
                 56026 =
2017-11-18 08:54 METAR KDDH 181354Z AUTO 33003KT 10SM CLR M03/M07 A2984 RMK AO2 SLP114 T10331067
                 =
2017-11-18 07:54 METAR KDDH 181254Z AUTO 00000KT 10SM CLR M06/M08 A2988 RMK AO2 SLP129 T10561078
                 =
2017-11-18 06:54 METAR KDDH 181154Z AUTO 00000KT 10SM CLR M07/M09 A2990 RMK AO2 SLP136 T10671089
                 11056 21078 56014 =
2017-11-18 05:54 METAR KDDH 181054Z AUTO 17003KT 10SM CLR M07/M09 A2991 RMK AO2 SLP139 T10721094
                 =
2017-11-18 04:54 METAR KDDH 180954Z AUTO 00000KT 10SM CLR M07/M09 A2993 RMK AO2 SLP144 T10671089
                 =
2017-11-18 03:54 METAR KDDH 180854Z AUTO 00000KT 10SM CLR M07/M09 A2994 RMK AO2 SLP149 T10671094
                 58020 =
2017-11-18 02:54 METAR KDDH 180754Z AUTO 00000KT 10SM CLR M07/M09 A2997 RMK AO2 SLP158 T10671089
                 =
2017-11-18 01:54 METAR KDDH 180654Z AUTO 00000KT 10SM CLR M07/M08 A3000 RMK AO2 SLP168 T10671083
                 =
2017-11-18 00:54 METAR KDDH 180554Z AUTO 00000KT 10SM CLR M06/M09 A3000 RMK AO2 SLP169 T10611089
                 11006 21067 58008 =
2017-11-17 23:54 METAR KDDH 180454Z AUTO 00000KT 10SM CLR M06/M09 A3002 RMK AO2 SLP177 T10561089
                 400441056 =
2017-11-17 22:54 METAR KDDH 180354Z AUTO 00000KT 10SM CLR M05/M08 A3005 RMK AO2 SLP186 T10501083
                 =

Support USWX by starting your Amazon purchase here.